• Join FlightAware (Why Join?)
  • Login
  • US Flag 
10:49PM EST


 

Airport Tracker/Info


-or-


 

Live Flight TrackerFlight Track Log ✈ N302MP ✈ 18-Jan-2014 ✈ KFMY - KPMP

Flight Track Log - Related Links

Times and Time Zones

All times are in EST time to prevent confusion due to time zone crossing. See the N302MP flight status page for this flight to view local times or setup timezone preferences in your user account.

Time Position Orientation Groundspeed Altitude Reporting Facility
EST Latitude Longitude Course Direction KTS MPH feet Rate Location/Type
04:43PM 26.5808 -81.2981 101° East 148 170 5,500  Level Miami Center
04:44PM 26.5675 -81.2556 109° East 148 170 5,500  Level Miami Center
04:45PM 26.5564 -81.2111 106° East 148 170 5,500  Level Miami Center
04:46PM 26.5431 -81.1689 109° East 148 170 5,500  Level Miami Center
04:47PM 26.5317 -81.1267 107° East 148 170 5,500  Level Miami Center
04:48PM 26.4216 -80.9962 101° East  Level Estimated
04:48PM 26.5206 -81.0822 106° East 148 170 5,500  Level Miami Center
04:49PM 26.5092 -81.0422 108° East 148 170 5,500  Level Miami Center
04:50PM 26.4917 -80.9931 112° Southeast 148 170 5,500  Level Miami Center
04:51PM 26.4803 -80.9553 109° East 147 169 5,500  Level Miami Center
04:52PM 26.4692 -80.9039 104° East 147 169 5,500  Level Miami Center
04:53PM 26.4578 -80.8642 108° East 147 169 5,500  Level Miami Center
04:53PM 26.4558 -80.8594 115° Southeast 156 180 5,500  Level Miami Center
04:54PM 26.4467 -80.8175 104° East 142 163 5,500  Level Miami Center
04:54PM 26.4425 -80.8103 123° Southeast 142 163 5,500  Level Miami Center
04:55PM 26.4331 -80.7775 108° East 142 163 5,500  Level Miami Center
04:55PM 26.4292 -80.7633 107° East 149 171 5,500  Level Miami Center
04:56PM 26.4197 -80.7283 107° East 147 169 5,500  Level Miami Center
04:56PM 26.4158 -80.7189 115° Southeast 149 171 5,500 -120 Level Miami Center
04:57PM 26.4083 -80.6886 105° East 147 169 5,400  Descending Miami Center
04:57PM 26.4044 -80.6722 105° East 151 174 5,500 -240 Climbing Miami Center
04:58PM 26.3969 -80.6419 105° East 146 168 5,200 -420 Descending Miami Center
04:58PM 26.3889 -80.6278 122° Southeast 166 191 5,100 -300 Descending Miami Center
04:59PM 26.3814 -80.5972 105° East 153 176 4,900 -300 Descending Miami Center
04:59PM 26.3778 -80.5786 102° East 157 181 4,800 -420 Descending Miami Center
05:00PM 26.3681 -80.5458 108° East 153 176 4,500 -420 Descending Miami Center
05:00PM 26.3622 -80.5317 115° Southeast 165 190 4,400 -300 Descending Miami Center
05:01PM 26.3567 -80.5039 103° East 153 176 4,200 -420 Descending Miami Center
05:01PM 26.3469 -80.4711 108° East 163 188 3,900 -540 Descending Miami Center
05:02PM 26.3411 -80.4500 107° East 153 176 3,700 -540 Descending Miami Center
05:02PM 26.3353 -80.4358 115° Southeast 160 184 3,500 -420 Descending Miami Center
05:03PM 26.3217 -80.3892 108° East 153 176 3,100 -420 Descending Miami Center
05:04PM 26.3103 -80.3425 105° East 153 176 2,700 -420 Descending Miami Center
05:05PM 26.2969 -80.2933 107° East 149 171 2,300 -360 Descending Miami Center
05:06PM 26.2833 -80.2536 111° Southeast 140 161 2,000 -360 Descending Miami Center
05:07PM 26.2736 -80.2139 105° East 138 159 1,700 -300 Descending Miami Center
05:08PM 26.2642 -80.1719 104° East 137 158 1,400 -420 Descending Miami Center
05:09PM 26.2547 -80.1278 103° East 136 157 900 -540 Descending Miami Center
05:11PM 26.2471 -80.1111 101° East  Level Estimated
05:18PM 26.2471 -80.1111 101° East  Level Estimated
05:19PM 26.2471 -80.1111 101° East  Level Estimated